This is the latest recevied weather packets stored in our database for station/object WI0K. If no packets are shown the sender has not sent any weather packets the latest 10 day(s).
| Time | Temp. | Humidity | Pressure | Rain* | Wind** | Luminosity | Snow |
|---|---|---|---|---|---|---|---|
| 1777929668 | 19.44° C | 24% | 1008.7 hPa | 0 mm | - | 246 W/m² | - |
| 1777929618 | 19.44° C | 25% | 1008.9 hPa | 0 mm | - | 267 W/m² | - |
| 1777929367 | 19.44° C | 25% | 1008.9 hPa | 0 mm | - | 267 W/m² | - |
| 1777929318 | 20° C | 24% | 1008.9 hPa | 0 mm | - | 271 W/m² | - |
| 1777929067 | 20° C | 24% | 1008.9 hPa | 0 mm | - | 271 W/m² | - |
| 1777929017 | 19.44° C | 23% | 1008.9 hPa | 0 mm | - | 279 W/m² | - |
| 1777928766 | 19.44° C | 23% | 1008.9 hPa | 0 mm | - | 279 W/m² | - |
| 1777928466 | 19.44° C | 24% | 1008.9 hPa | 0 mm | - | 255 W/m² | - |
| 1777928165 | 19.44° C | 24% | 1008.6 hPa | 0 mm | - | 251 W/m² | - |
| 1777927864 | 19.44° C | 25% | 1008.9 hPa | 0 mm | - | 277 W/m² | - |
| 1777927563 | 19.44° C | 25% | 1009 hPa | 0 mm | - | 278 W/m² | - |
| 1777927510 | 19.44° C | 24% | 1009.1 hPa | 0 mm | - | 249 W/m² | - |
| 1777927263 | 19.44° C | 24% | 1009.1 hPa | 0 mm | - | 249 W/m² | - |
| 1777926962 | 18.89° C | 24% | 1009.2 hPa | 0 mm | - | 260 W/m² | - |
| 1777926662 | 18.89° C | 25% | 1009.2 hPa | 0 mm | - | 305 W/m² | - |
| 1777926361 | 18.89° C | 26% | 1009.3 hPa | 0 mm | - | 278 W/m² | - |
| 1777926060 | 19.44° C | 24% | 1008.9 hPa | 0 mm | - | 192 W/m² | - |
| 1777926007 | 19.44° C | 24% | 1009.1 hPa | 0 mm | - | 181 W/m² | - |
| 1777925760 | 19.44° C | 24% | 1009.1 hPa | 0 mm | - | 181 W/m² | - |
| 1777925459 | 18.89° C | 25% | 1009.1 hPa | 0 mm | - | 216 W/m² | - |
| 1777925159 | 19.44° C | 26% | 1009.1 hPa | 0 mm | - | 225 W/m² | - |
| 1777924858 | 19.44° C | 25% | 1009.2 hPa | 0 mm | - | 217 W/m² | - |
| 1777924557 | 20° C | 23% | 1009.1 hPa | 0 mm | - | 204 W/m² | - |
| 1777924256 | 20° C | 22% | 1009.1 hPa | 0 mm | - | 204 W/m² | - |
| 1777923956 | 20° C | 22% | 1009.1 hPa | 0 mm | - | 216 W/m² | - |
* Rain latest hour (hover to see other rain measurements)
** Current wind speed in m/s (hover to see current wind gust speed)